Winter Springs, FL (32708)

7:28 PM EDT on May 22, 2017 (GMT -0400)
Oak Forest WS | | Change Station

Elev 40 ft 28.67 °N, 81.27 °W | Updated 51 seconds ago

Thunderstorm
Thunderstorm
73.5 °F
Feels Like 71 °F
N
0.0
Wind Variable Wind from North
Gusts 0.0 mph

Today
High -- | Low -- °F
--% Chance of Precip.
Yesterday
High -- | Low -- °F
Precip. -- in
Pressure 29.99 in
Visibility 1.8 miles
Clouds Mostly Cloudy 4700 ft
Overcast 6500 ft
Heat Index 71 °F
Dew Point 71 °F
Humidity 92%
Rainfall 0.49 in
Snow Depth Not available.
6:30 AM 8:13 PM
Waning Crescent, 12% visible
SPECI KSFB 222325Z 23007KT 1 3/4SM -TSRA BKN047 OVC065 26/22 A2999 RMK AO2 LTG DSNT N AND SW RAB14 TSB12 P0004 T02560217
Pressure 29.99 in
Visibility 1.8 miles
Clouds Mostly Cloudy 4700 ft
Overcast 6500 ft
Heat Index 71 °F
Dew Point 71 °F
Humidity 92%
Rainfall 0.49 in
Snow Depth Not available.
6:30 AM 8:13 PM
Waning Crescent, 12% visible
SPECI KSFB 222325Z 23007KT 1 3/4SM -TSRA BKN047 OVC065 26/22 A2999 RMK AO2 LTG DSNT N AND SW RAB14 TSB12 P0004 T02560217

Get Severe Weather Alerts

Thanks for signing up!

Be on the lookout for a verification email in your inbox.

You'll start receiving the daily forecast at 6 AM.

×

10-Day Weather Forecast

Almanac

Astronomy

May. 22, 2017 Rise Set
Actual Time
Civil Twilight
Nautical Twilight
Astronomical Twilight
Moon
Length of Visible Light
Length of Day
Tomorrow will be .
, % of the Moon is Illuminated

Today's Extremes

State Highs State Lows

Community

WunderPhotos

Category 6

Welcome to Category 6. This is the collective home for Weather Underground's featured writeups by Dr. Jeff Masters (right), Bob Henson (left), Chris Burt, and other regular contributors.

Nearby

Air Quality

  Air Quality AQ Index Pollutant
Not available.

Snow Depth

Station Depth Elevation

Earthquake Activity

City Distance Mag. Time & Date
Minimum magnitude displayed is 2.5.

Coastal Water Temperatures

Place Temperature

Stations

Nearby Weather Stations

Station Location Temp. Windchill Dew Point Humidity Wind Precip. Elev Updated Type
                   

Watches & Warnings

There are currently no watches in effect.